AZV2948 UUWW-HESH
Flight info
| Callsign | AZV2948 |
|---|---|
| Flight time | N/A |
| Altitude | 35000 |
| Route | EMGAS3A EMGAS T828 EKTUT N72 UMSIS N166 TUDEK/N0484F350 UR114 TBN/N0483F360 UW88 PIXAP UT166 ERN UW88 EZS UW701 GAZ/N0485F350 UB36 TUSYR/N0486F360 B544 ALE/N0487F350 Q538 KTN R785 ZELAF M690 ELOXI/N0495F360 M690 SESMO M319 ULINA M690 NOVPA NOVPA2G |
| Aircraft | B77W/H-SDE1E2E3FGHIJ2J3J4J5M1RWXY/LB1D1 |
Departure
| Time | N/A |
|---|---|
| Airport | Vnukovo International Airport (UUWW) |
Arrival
| Time | 2026-04-29 17:07 |
|---|---|
| Airport | Sharm El Sheikh International Airport (HESH) |
| Time | Latitude | Longitude | Altitude | Speed | Heading |
|---|---|---|---|---|---|
| 2026-04-29 16:43 | 29.48990 | 35.07410 | 35023 ft | 441 kts | 236° |
| 2026-04-29 16:43 | 29.45016 | 35.02032 | 35005 ft | 441 kts | 236° |
| 2026-04-29 16:44 | 29.40807 | 34.96861 | 35004 ft | 447 kts | 227° |
| 2026-04-29 16:44 | 29.35696 | 34.92633 | 35015 ft | 454 kts | 222° |
| 2026-04-29 16:45 | 29.30489 | 34.88532 | 35019 ft | 453 kts | 222° |
| 2026-04-29 16:45 | 29.25326 | 34.84472 | 34689 ft | 443 kts | 222° |
| 2026-04-29 16:46 | 29.22809 | 34.82492 | 33757 ft | 446 kts | 222° |
| 2026-04-29 16:46 | 29.20190 | 34.80426 | 32456 ft | 459 kts | 222° |
| 2026-04-29 16:46 | 29.17558 | 34.78349 | 31038 ft | 474 kts | 222° |
| 2026-04-29 16:46 | 29.14847 | 34.76216 | 29946 ft | 480 kts | 223° |
| 2026-04-29 16:47 | 29.12070 | 34.74041 | 29405 ft | 472 kts | 223° |
| 2026-04-29 16:47 | 29.09424 | 34.71975 | 28835 ft | 458 kts | 223° |
| 2026-04-29 16:47 | 29.06825 | 34.69943 | 27976 ft | 450 kts | 223° |
| 2026-04-29 16:47 | 29.04263 | 34.67889 | 27127 ft | 447 kts | 226° |
| 2026-04-29 16:48 | 29.01988 | 34.65533 | 26366 ft | 438 kts | 234° |
| 2026-04-29 16:48 | 28.99938 | 34.62986 | 25685 ft | 435 kts | 235° |
| 2026-04-29 16:48 | 28.97922 | 34.60441 | 25123 ft | 431 kts | 235° |
| 2026-04-29 16:48 | 28.95929 | 34.57927 | 24601 ft | 426 kts | 235° |
| 2026-04-29 16:49 | 28.93953 | 34.55438 | 24076 ft | 421 kts | 235° |
| 2026-04-29 16:49 | 28.92000 | 34.52978 | 23551 ft | 416 kts | 235° |
| 2026-04-29 16:49 | 28.89985 | 34.50682 | 23053 ft | 417 kts | 227° |
| 2026-04-29 16:49 | 28.87626 | 34.48704 | 22627 ft | 418 kts | 221° |
| 2026-04-29 16:50 | 28.85164 | 34.46852 | 22286 ft | 428 kts | 220° |
| 2026-04-29 16:50 | 28.82663 | 34.44986 | 21893 ft | 426 kts | 220° |
| 2026-04-29 16:50 | 28.80204 | 34.43158 | 21519 ft | 422 kts | 220° |
| 2026-04-29 16:50 | 28.77745 | 34.41327 | 21132 ft | 421 kts | 220° |
| 2026-04-29 16:51 | 28.75314 | 34.39520 | 20747 ft | 418 kts | 220° |
| 2026-04-29 16:51 | 28.72902 | 34.37727 | 20367 ft | 416 kts | 219° |
| 2026-04-29 16:51 | 28.70454 | 34.35909 | 19983 ft | 416 kts | 219° |
| 2026-04-29 16:51 | 28.68055 | 34.34127 | 19617 ft | 414 kts | 219° |
| 2026-04-29 16:52 | 28.65638 | 34.32335 | 19240 ft | 412 kts | 218° |
| 2026-04-29 16:52 | 28.63268 | 34.30577 | 18866 ft | 410 kts | 218° |
| 2026-04-29 16:52 | 28.60852 | 34.28785 | 18494 ft | 409 kts | 218° |
| 2026-04-29 16:52 | 28.58490 | 34.27036 | 18131 ft | 406 kts | 218° |
| 2026-04-29 16:53 | 28.56141 | 34.25297 | 17769 ft | 405 kts | 218° |
| 2026-04-29 16:53 | 28.53776 | 34.23547 | 17406 ft | 404 kts | 217° |
| 2026-04-29 16:53 | 28.51402 | 34.21791 | 17040 ft | 402 kts | 217° |
| 2026-04-29 16:53 | 28.49059 | 34.20060 | 16675 ft | 399 kts | 217° |
| 2026-04-29 16:54 | 28.46714 | 34.18408 | 16302 ft | 400 kts | 212° |
| 2026-04-29 16:54 | 28.44149 | 34.17174 | 15934 ft | 401 kts | 203° |
| 2026-04-29 16:54 | 28.41505 | 34.16148 | 15560 ft | 401 kts | 202° |
| 2026-04-29 16:54 | 28.38858 | 34.15139 | 15184 ft | 399 kts | 202° |
| 2026-04-29 16:55 | 28.36248 | 34.14144 | 14823 ft | 396 kts | 202° |
| 2026-04-29 16:55 | 28.33651 | 34.13155 | 14459 ft | 394 kts | 202° |
| 2026-04-29 16:55 | 28.31034 | 34.12159 | 14100 ft | 393 kts | 202° |
| 2026-04-29 16:55 | 28.28467 | 34.11182 | 13738 ft | 390 kts | 202° |
| 2026-04-29 16:56 | 28.25883 | 34.10199 | 13380 ft | 387 kts | 202° |
| 2026-04-29 16:56 | 28.23348 | 34.09235 | 13020 ft | 384 kts | 201° |
| 2026-04-29 16:56 | 28.20837 | 34.08281 | 12657 ft | 382 kts | 201° |
| 2026-04-29 16:56 | 28.18315 | 34.07322 | 12297 ft | 381 kts | 201° |
| 2026-04-29 16:57 | 28.15794 | 34.06365 | 11935 ft | 377 kts | 201° |
| 2026-04-29 16:57 | 28.13337 | 34.05433 | 11552 ft | 371 kts | 201° |
| 2026-04-29 16:57 | 28.10912 | 34.04514 | 11175 ft | 365 kts | 200° |
| 2026-04-29 16:57 | 28.08499 | 34.03599 | 10808 ft | 359 kts | 200° |
| 2026-04-29 16:58 | 28.06166 | 34.02715 | 10305 ft | 347 kts | 200° |
| 2026-04-29 16:58 | 28.03950 | 34.01877 | 10100 ft | 326 kts | 200° |
| 2026-04-29 16:58 | 28.01841 | 34.01080 | 9889 ft | 309 kts | 200° |
| 2026-04-29 16:58 | 27.99840 | 34.00323 | 9507 ft | 300 kts | 199° |
| 2026-04-29 16:59 | 27.97891 | 33.99585 | 9129 ft | 292 kts | 200° |
| 2026-04-29 16:59 | 27.95992 | 33.98866 | 8779 ft | 284 kts | 199° |
| 2026-04-29 16:59 | 27.94098 | 33.98444 | 8410 ft | 277 kts | 176° |
| 2026-04-29 16:59 | 27.92253 | 33.98971 | 8135 ft | 279 kts | 152° |
| 2026-04-29 17:00 | 27.90743 | 34.00333 | 7817 ft | 281 kts | 127° |
| 2026-04-29 17:00 | 27.89705 | 34.02168 | 7373 ft | 276 kts | 115° |
| 2026-04-29 17:00 | 27.88888 | 34.04160 | 7037 ft | 281 kts | 111° |
| 2026-04-29 17:00 | 27.88134 | 34.06185 | 6696 ft | 282 kts | 110° |
| 2026-04-29 17:01 | 27.87392 | 34.08224 | 6352 ft | 281 kts | 110° |
| 2026-04-29 17:01 | 27.86654 | 34.10258 | 6022 ft | 279 kts | 110° |
| 2026-04-29 17:01 | 27.85920 | 34.12281 | 5723 ft | 280 kts | 110° |
| 2026-04-29 17:01 | 27.85182 | 34.14311 | 5358 ft | 280 kts | 110° |
| 2026-04-29 17:02 | 27.84435 | 34.16367 | 4957 ft | 280 kts | 110° |
| 2026-04-29 17:02 | 27.83708 | 34.18362 | 4672 ft | 272 kts | 110° |
| 2026-04-29 17:02 | 27.83053 | 34.20326 | 4339 ft | 264 kts | 98° |
| 2026-04-29 17:02 | 27.83057 | 34.22313 | 3985 ft | 249 kts | 69° |
| 2026-04-29 17:03 | 27.83709 | 34.24056 | 3673 ft | 236 kts | 54° |
| 2026-04-29 17:03 | 27.84655 | 34.25524 | 3372 ft | 226 kts | 44° |
| 2026-04-29 17:03 | 27.85717 | 34.26791 | 3082 ft | 218 kts | 39° |
| 2026-04-29 17:03 | 27.86818 | 34.27946 | 2798 ft | 210 kts | 37° |
| 2026-04-29 17:04 | 27.87868 | 34.29002 | 2527 ft | 200 kts | 37° |
| 2026-04-29 17:04 | 27.88872 | 34.30021 | 2288 ft | 185 kts | 37° |
| 2026-04-29 17:04 | 27.89795 | 34.30971 | 2049 ft | 173 kts | 37° |
| 2026-04-29 17:04 | 27.90638 | 34.31843 | 1831 ft | 155 kts | 36° |
| 2026-04-29 17:05 | 27.91421 | 34.32649 | 1635 ft | 151 kts | 36° |
| 2026-04-29 17:05 | 27.92192 | 34.33447 | 1430 ft | 149 kts | 37° |
| 2026-04-29 17:05 | 27.92963 | 34.34240 | 1181 ft | 150 kts | 38° |
| 2026-04-29 17:05 | 27.93738 | 34.35040 | 953 ft | 149 kts | 38° |
| 2026-04-29 17:06 | 27.94509 | 34.35830 | 785 ft | 149 kts | 38° |
| 2026-04-29 17:06 | 27.95274 | 34.36639 | 581 ft | 153 kts | 40° |
| 2026-04-29 17:06 | 27.96062 | 34.37454 | 403 ft | 154 kts | 40° |
| 2026-04-29 17:06 | 27.96846 | 34.38267 | 221 ft | 155 kts | 41° |
| 2026-04-29 17:07 | 27.97596 | 34.39044 | 187 ft | 125 kts | 42° |
| 2026-04-29 17:07 | 27.98118 | 34.39588 | 179 ft | 81 kts | 42° |
| 2026-04-29 17:07 | 27.98392 | 34.39874 | 175 ft | 34 kts | 42° |
| 2026-04-29 17:07 | 27.98457 | 34.39940 | 174 ft | 8 kts | 41° |
| 2026-04-29 17:08 | 27.98510 | 34.39959 | 174 ft | 8 kts | 346° |
| 2026-04-29 17:08 | 27.98559 | 34.39926 | 175 ft | 10 kts | 322° |
| 2026-04-29 17:08 | 27.98607 | 34.39872 | 177 ft | 7 kts | 306° |
| 2026-04-29 17:08 | 27.98614 | 34.39826 | 179 ft | 4 kts | 258° |
| 2026-04-29 17:09 | 27.98608 | 34.39804 | 180 ft | 1 kts | 245° |
| 2026-04-29 17:09 | 27.98596 | 34.39785 | 180 ft | 4 kts | 234° |
| 2026-04-29 17:09 | 27.98566 | 34.39750 | 181 ft | 8 kts | 223° |
| 2026-04-29 17:09 | 27.98510 | 34.39691 | 181 ft | 13 kts | 223° |
| 2026-04-29 17:10 | 27.98438 | 34.39616 | 184 ft | 13 kts | 222° |
| 2026-04-29 17:10 | 27.98375 | 34.39550 | 185 ft | 12 kts | 223° |
| 2026-04-29 17:10 | 27.98310 | 34.39482 | 185 ft | 12 kts | 223° |
| 2026-04-29 17:10 | 27.98246 | 34.39416 | 187 ft | 11 kts | 223° |
| 2026-04-29 17:11 | 27.98216 | 34.39384 | 188 ft | 2 kts | 223° |
| 2026-04-29 17:11 | 27.98192 | 34.39359 | 190 ft | 5 kts | 225° |
| 2026-04-29 17:11 | 27.98180 | 34.39338 | 191 ft | 1 kts | 247° |
| 2026-04-29 17:11 | 27.98179 | 34.39314 | 192 ft | 2 kts | 294° |
| 2026-04-29 17:12 | 27.98191 | 34.39298 | 193 ft | 2 kts | 309° |
| 2026-04-29 17:12 | 27.98199 | 34.39287 | 193 ft | 2 kts | 311° |
| 2026-04-29 17:12 | 27.98203 | 34.39281 | 193 ft | 0 kts | 311° |